createdAt,value
2019-04-14T06:43:55.794Z,19.00
2019-04-14T06:44:55.751Z,28.50
2019-04-14T06:45:55.737Z,33.60
2019-04-14T06:46:55.697Z,35.50
2019-04-14T06:47:55.670Z,34.00
2019-04-14T06:48:55.645Z,32.80
2019-04-14T06:49:55.619Z,33.80
2019-04-14T06:50:55.609Z,34.10
2019-04-14T06:51:55.566Z,33.40
2019-04-14T06:52:55.541Z,34.80
2019-04-14T07:02:22.513Z,25.00
2019-04-14T07:03:22.467Z,29.90
2019-04-14T07:04:22.447Z,32.70
2019-04-14T07:05:22.418Z,33.00
2019-04-14T07:06:22.393Z,34.70
2019-04-14T07:07:22.399Z,36.20
2019-04-14T07:08:22.352Z,34.30
2019-04-14T07:09:22.320Z,32.60
2019-04-14T07:10:22.302Z,34.50
2019-04-14T07:15:17.990Z,26.40
2019-04-14T07:16:17.952Z,30.30
2019-04-14T07:17:17.946Z,30.40
2019-04-14T07:18:17.902Z,32.60
2019-04-14T07:19:17.877Z,35.10
2019-04-14T07:20:17.856Z,33.50
2019-04-14T07:25:58.205Z,25.00
2019-04-14T07:26:58.164Z,29.50
2019-04-14T07:27:58.156Z,34.30
2019-04-14T07:28:58.119Z,36.50
2019-04-14T07:29:58.095Z,32.70
2019-04-14T07:30:58.070Z,34.40
2019-04-14T07:36:03.708Z,23.60
2019-04-14T07:37:03.671Z,25.90
2019-04-14T07:38:03.661Z,30.70
2019-04-14T07:39:03.625Z,32.50
2019-04-14T07:40:03.607Z,31.90
2019-04-14T07:45:29.086Z,20.60
2019-04-14T07:46:29.050Z,25.90
2019-04-14T07:47:29.026Z,29.80
2019-04-14T07:48:29.021Z,31.80
2019-04-14T07:49:28.978Z,33.30
2019-04-14T07:53:45.450Z,24.90
2019-04-14T07:54:45.411Z,27.60
2019-04-14T07:55:45.388Z,31.10
2019-04-14T07:56:45.364Z,33.10
2019-04-14T07:57:45.341Z,34.80
2019-04-14T07:58:45.336Z,33.50
2019-04-14T08:03:14.522Z,24.00
2019-04-14T08:04:14.518Z,28.30
2019-04-14T08:05:14.473Z,29.20
2019-04-14T08:06:14.451Z,31.00
2019-04-14T08:11:19.383Z,20.80
2019-04-14T08:12:19.345Z,25.60
2019-04-14T08:13:19.323Z,30.20
2019-04-14T08:14:19.318Z,28.20
2019-04-14T08:19:22.645Z,18.80
2019-04-14T08:20:27.587Z,26.20
2019-04-14T08:21:22.581Z,26.50
2019-04-14T08:22:22.558Z,28.30
2019-04-14T08:23:22.542Z,29.10
2019-04-14T08:24:22.509Z,29.30
2019-04-14T08:25:22.505Z,30.70
2019-04-14T08:26:22.467Z,27.70
2019-04-14T08:30:30.310Z,22.60
2019-04-14T08:31:30.226Z,24.50
2019-04-14T08:32:30.202Z,24.50
2019-04-14T08:33:30.184Z,24.10
2019-04-14T08:34:30.158Z,22.40
2019-04-14T08:35:30.165Z,25.30
2019-04-14T08:39:07.866Z,16.90
2019-04-14T08:40:07.860Z,18.50
2019-04-14T08:41:07.813Z,19.70
2019-04-14T08:42:07.792Z,20.90
2019-04-14T08:43:07.766Z,21.00
2019-04-14T08:44:07.751Z,20.20
2019-04-14T08:45:07.722Z,19.40
2019-04-14T08:46:07.712Z,20.10
2019-04-14T08:50:02.508Z,16.20
2019-04-14T08:51:02.491Z,17.80
2019-04-14T08:52:02.479Z,17.90
2019-04-14T08:53:02.437Z,18.20
2019-04-14T08:54:02.412Z,18.30
2019-04-14T08:58:34.514Z,12.70
2019-04-14T08:59:34.476Z,16.30
2019-04-14T09:00:34.455Z,17.00
2019-04-14T09:01:34.499Z,16.30
2019-04-14T09:05:53.249Z,14.40
2019-04-14T09:06:52.904Z,15.10
2019-04-14T09:07:52.866Z,17.40
2019-04-14T09:08:52.846Z,16.50
2019-04-14T09:13:19.487Z,13.60
2019-04-14T09:14:19.448Z,14.80
2019-04-14T09:15:19.425Z,16.60
2019-04-14T09:16:19.403Z,15.30
2019-04-14T09:20:52.480Z,12.60
2019-04-14T09:21:50.123Z,15.10
2019-04-14T09:22:50.113Z,15.50
2019-04-14T09:23:50.077Z,16.20
2019-04-14T09:28:22.472Z,14.10
2019-04-14T09:29:22.435Z,14.30
2019-04-14T09:30:22.429Z,17.00
2019-04-14T09:31:22.398Z,14.90
2019-04-14T09:36:14.696Z,11.10
2019-04-14T09:37:14.664Z,13.50
2019-04-14T09:38:14.638Z,14.60
2019-04-14T09:39:14.630Z,17.10
2019-04-14T09:40:14.595Z,19.00
2019-04-14T09:44:24.262Z,15.10
2019-04-14T09:45:24.230Z,15.00
2019-04-14T09:46:24.206Z,15.90
2019-04-14T09:47:24.196Z,16.50
2019-04-14T09:48:24.186Z,14.50
2019-04-14T09:51:57.032Z,11.90
2019-04-14T09:52:56.956Z,13.20
2019-04-14T09:53:56.939Z,14.80
2019-04-14T09:54:56.927Z,14.20
2019-04-14T09:55:56.905Z,14.40
2019-04-14T09:56:56.870Z,15.20
2019-04-14T10:00:50.919Z,13.50
2019-04-14T10:01:50.837Z,15.50
2019-04-14T10:02:50.812Z,14.00
2019-04-14T10:03:50.790Z,13.10
2019-04-14T10:04:50.788Z,16.00
2019-04-14T10:05:50.750Z,14.20
2019-04-14T10:09:49.802Z,10.70
2019-04-14T10:10:49.779Z,11.90
2019-04-14T10:11:53.512Z,12.50
2019-04-14T10:12:49.731Z,13.20
2019-04-14T10:13:49.704Z,13.20
2019-04-14T10:14:49.684Z,13.00
2019-04-14T10:15:49.678Z,13.10
2019-04-14T10:19:33.026Z,10.90
2019-04-14T10:20:33.018Z,12.30
2019-04-14T10:21:32.982Z,13.20
2019-04-14T10:22:34.254Z,13.20
2019-04-14T10:23:32.948Z,12.60
2019-04-14T10:24:32.922Z,13.10
2019-04-14T10:25:32.955Z,13.00
2019-04-14T10:26:32.888Z,13.70
2019-04-14T10:27:32.888Z,13.70
2019-04-14T10:28:32.846Z,13.40
2019-04-14T10:29:32.825Z,13.30
2019-04-14T10:30:32.825Z,13.40
2019-04-14T10:31:32.843Z,13.00
2019-04-14T10:32:32.901Z,12.60
2019-04-14T10:33:32.791Z,13.00
2019-04-14T10:34:32.731Z,13.10
2019-04-14T10:35:32.714Z,12.80
2019-04-14T10:36:32.729Z,12.70
2019-04-14T10:37:32.720Z,12.90
2019-04-14T10:38:32.658Z,13.20
2019-04-14T10:39:32.643Z,12.60
2019-04-14T10:40:32.633Z,12.00
2019-04-14T10:41:32.629Z,12.60
2019-04-14T10:42:32.588Z,12.40
2019-04-14T10:43:32.586Z,12.50
2019-04-14T10:44:32.552Z,12.10
2019-04-14T10:45:32.545Z,12.50
2019-04-14T10:46:32.534Z,12.50
2019-04-14T10:47:32.495Z,12.10
2019-04-14T10:48:32.478Z,12.20
2019-04-14T10:49:32.459Z,12.60
2019-04-14T10:50:32.443Z,13.20
2019-04-14T10:51:34.063Z,12.50
2019-04-14T10:52:32.427Z,12.50
2019-04-14T10:53:32.391Z,12.00
2019-04-14T10:54:32.373Z,10.70
2019-04-14T10:55:32.353Z,12.60
2019-04-14T10:56:32.338Z,12.40
2019-04-14T10:57:32.333Z,12.10
2019-04-14T10:58:32.299Z,13.40
2019-04-14T10:59:32.284Z,11.60
2019-04-14T11:00:32.269Z,12.20
2019-04-14T11:01:32.249Z,12.10
2019-04-14T11:02:32.245Z,12.00
2019-04-14T11:03:32.227Z,12.30
2019-04-14T11:04:32.197Z,11.90
2019-04-14T11:05:32.181Z,12.40
2019-04-14T11:06:32.163Z,12.10
2019-04-14T11:07:32.162Z,11.80
2019-04-14T11:08:32.129Z,12.10
2019-04-14T11:09:32.110Z,11.50
2019-04-14T11:10:32.093Z,12.10
2019-04-14T11:11:32.077Z,12.20
2019-04-14T11:12:32.058Z,12.40
2019-04-14T11:13:32.054Z,12.10
2019-04-14T11:14:32.026Z,11.90
2019-04-14T11:15:32.007Z,11.70
2019-04-14T11:16:31.991Z,11.10
2019-04-14T11:17:31.976Z,12.40
2019-04-14T11:18:31.971Z,12.30
2019-04-14T11:19:31.939Z,11.90
2019-04-14T11:20:31.921Z,11.80
2019-04-14T11:21:41.949Z,12.10
2019-04-14T11:22:31.890Z,11.40
2019-04-14T11:23:31.885Z,12.10
2019-04-14T11:24:31.855Z,11.00
2019-04-14T11:25:31.838Z,12.30
2019-04-14T11:26:31.821Z,12.30
2019-04-14T11:27:31.802Z,11.80
2019-04-14T11:28:31.802Z,11.70
2019-04-14T11:29:31.772Z,11.10
2019-04-14T11:30:31.756Z,11.20
2019-04-14T11:31:31.735Z,11.30
2019-04-14T11:32:31.720Z,11.50
2019-04-14T11:33:31.718Z,11.40
2019-04-14T11:34:31.689Z,12.00
2019-04-14T11:35:31.671Z,11.30
2019-04-14T11:36:31.659Z,11.20
2019-04-14T11:37:31.637Z,11.00
2019-04-14T11:38:31.643Z,12.10
2019-04-14T11:39:31.602Z,11.70
2019-04-14T11:40:34.439Z,11.80
2019-04-14T11:41:31.571Z,11.20
2019-04-14T11:42:31.555Z,11.40
2019-04-14T11:43:31.555Z,12.50
2019-04-14T11:44:31.521Z,13.70
2019-04-14T11:45:31.504Z,11.70
2019-04-14T11:46:31.487Z,12.50
2019-04-14T11:47:31.473Z,12.30
2019-04-14T11:48:31.456Z,12.00
2019-04-14T11:49:31.459Z,11.90
2019-04-14T11:50:31.420Z,11.90
2019-04-14T11:51:31.406Z,11.60
2019-04-14T11:52:31.389Z,11.60
2019-04-14T11:53:31.370Z,11.60
2019-04-14T11:54:31.369Z,12.10
2019-04-14T11:55:31.340Z,12.80
2019-04-14T11:56:31.332Z,11.90
2019-04-14T11:57:31.306Z,11.90
2019-04-14T11:58:31.289Z,11.70
2019-04-14T11:59:31.284Z,11.50
2019-04-14T12:00:31.255Z,11.80
2019-04-14T12:01:31.237Z,12.00
2019-04-14T12:02:31.223Z,11.80
2019-04-14T12:03:32.516Z,11.80
2019-04-14T12:04:31.207Z,11.80
2019-04-14T12:05:31.176Z,12.10
2019-04-14T12:06:31.152Z,11.80
2019-04-14T12:07:31.134Z,11.90
2019-04-14T12:08:31.127Z,11.40
2019-04-14T12:09:31.140Z,11.70
2019-04-14T12:10:31.087Z,11.50
2019-04-14T12:11:31.113Z,10.50
2019-04-14T12:12:31.057Z,12.30
2019-04-14T12:13:31.042Z,11.70
2019-04-14T12:14:31.025Z,11.90
2019-04-14T12:15:31.030Z,11.00
2019-04-14T12:16:30.991Z,11.80
2019-04-14T12:17:30.972Z,11.30
2019-04-14T12:18:30.963Z,11.80
2019-04-14T12:19:30.941Z,11.50
2019-04-14T12:20:30.962Z,11.60
2019-04-14T12:21:30.913Z,12.30
2019-04-14T12:22:30.888Z,12.10
2019-04-14T12:23:30.877Z,11.90
2019-04-14T12:24:30.885Z,12.00
2019-04-14T12:25:30.845Z,11.40
2019-04-14T12:26:30.835Z,11.40
2019-04-14T12:27:30.809Z,11.40
2019-04-14T12:28:31.759Z,12.30
2019-04-14T12:29:30.782Z,11.30
2019-04-14T12:30:31.297Z,11.10
2019-04-14T12:31:30.991Z,11.00
2019-04-14T12:32:30.731Z,10.60
2019-04-14T12:33:30.712Z,11.40
2019-04-14T12:34:30.695Z,10.90
2019-04-14T12:35:30.722Z,10.40
2019-04-14T12:36:30.670Z,11.00
2019-04-14T12:37:30.647Z,10.70
2019-04-14T12:38:30.635Z,10.50
2019-04-14T12:39:30.621Z,10.90
2019-04-14T12:40:30.644Z,10.90
2019-04-14T12:41:31.071Z,10.90
2019-04-14T12:42:30.569Z,10.70
2019-04-14T12:43:30.552Z,10.70
2019-04-14T12:44:30.542Z,10.20
2019-04-14T12:45:30.527Z,10.40
2019-04-14T12:46:30.527Z,10.70
2019-04-14T12:47:30.504Z,11.10
2019-04-14T12:48:30.485Z,11.00
2019-04-14T12:49:30.465Z,11.20
2019-04-14T12:50:30.446Z,11.20
2019-04-14T12:51:31.191Z,10.80
2019-04-14T12:52:30.423Z,11.00
2019-04-14T12:53:30.404Z,11.30
2019-04-14T12:54:30.387Z,11.10
2019-04-14T12:55:30.370Z,10.70
2019-04-14T12:56:30.377Z,10.80
2019-04-14T12:57:30.341Z,10.70
2019-04-14T12:58:30.328Z,10.50
2019-04-14T12:59:30.309Z,10.20
2019-04-14T13:00:30.294Z,10.60
2019-04-14T13:01:30.279Z,10.80
2019-04-14T13:02:30.276Z,10.90
2019-04-14T13:03:30.270Z,10.30
2019-04-14T13:04:30.245Z,11.00
2019-04-14T13:05:30.230Z,11.00
2019-04-14T13:06:30.225Z,10.40
2019-04-14T13:07:30.213Z,10.90
2019-04-14T13:08:30.183Z,10.60
2019-04-14T13:09:30.175Z,10.20
2019-04-14T13:10:30.151Z,9.90
2019-04-14T13:11:30.132Z,9.90
2019-04-14T13:12:30.132Z,10.00
2019-04-14T13:13:30.099Z,10.20
2019-04-14T13:14:30.097Z,11.60
2019-04-14T13:15:30.081Z,12.20
2019-04-14T13:16:30.060Z,10.30
2019-04-14T13:17:30.061Z,10.40
2019-04-14T13:18:30.031Z,10.50
2019-04-14T13:19:30.017Z,9.80
2019-04-14T13:20:30.002Z,10.00
2019-04-14T13:21:29.989Z,10.20
2019-04-14T13:22:34.009Z,9.80
2019-04-14T13:23:29.963Z,9.70
2019-04-14T13:24:29.953Z,10.00
2019-04-14T13:25:29.936Z,10.60
2019-04-14T13:26:29.932Z,10.40
2019-04-14T13:27:29.908Z,10.20
2019-04-14T13:28:29.911Z,10.30
2019-04-14T13:29:29.882Z,9.90
2019-04-14T13:30:29.876Z,9.90
2019-04-14T13:31:29.855Z,9.80
2019-04-14T13:32:35.965Z,9.90
2019-04-14T13:33:29.844Z,10.40
2019-04-14T13:34:29.818Z,10.40
2019-04-14T13:35:29.803Z,9.90
2019-04-14T13:36:29.788Z,10.50
2019-04-14T13:37:29.780Z,9.90
2019-04-14T13:38:29.778Z,10.30
2019-04-14T13:39:29.754Z,9.80
2019-04-14T13:40:29.745Z,9.70
2019-04-14T13:41:29.727Z,9.20
2019-04-14T13:42:29.731Z,10.30
2019-04-14T13:43:29.720Z,10.20
2019-04-14T13:44:29.687Z,10.30
2019-04-14T13:45:29.677Z,10.30
2019-04-14T13:46:29.664Z,10.40
2019-04-14T13:47:29.647Z,10.60
2019-04-14T13:48:29.632Z,10.00
2019-04-14T13:49:29.634Z,10.20
2019-04-14T13:50:29.608Z,10.10
2019-04-14T13:51:29.591Z,10.30
2019-04-14T13:52:31.128Z,10.00
2019-04-14T13:53:29.565Z,10.70
2019-04-14T13:54:29.565Z,10.50
2019-04-14T13:55:29.538Z,10.30
2019-04-14T13:56:29.524Z,10.30
2019-04-14T13:57:29.508Z,10.30
2019-04-14T13:58:29.496Z,10.00
2019-04-14T13:59:29.497Z,9.70
2019-04-14T14:00:29.467Z,10.80
2019-04-14T14:01:29.454Z,10.80
2019-04-14T14:02:29.438Z,11.20
2019-04-14T14:03:29.424Z,10.70
2019-04-14T14:04:29.426Z,10.20
2019-04-14T14:05:29.396Z,10.70
2019-04-14T14:06:29.382Z,10.20
2019-04-14T14:07:29.366Z,10.40
2019-04-14T14:08:29.352Z,10.40
2019-04-14T14:09:29.354Z,9.70
2019-04-14T14:10:29.327Z,9.30
2019-04-14T14:11:32.220Z,9.80
2019-04-14T14:12:29.295Z,10.40
2019-04-14T14:13:29.284Z,10.00
2019-04-14T14:14:29.283Z,10.90
2019-04-14T14:15:29.255Z,10.30
2019-04-14T14:16:29.240Z,10.50
2019-04-14T14:17:29.227Z,9.90
2019-04-14T14:18:29.213Z,10.70
2019-04-14T14:19:29.212Z,10.50
2019-04-14T14:20:29.184Z,10.70
2019-04-14T14:21:29.172Z,10.00
2019-04-14T14:22:29.153Z,9.50
2019-04-14T14:23:29.138Z,10.20
2019-04-14T14:24:29.143Z,9.90
2019-04-14T14:25:29.113Z,10.30
2019-04-14T14:26:29.097Z,10.20
2019-04-14T14:27:29.125Z,10.00
2019-04-14T14:28:29.074Z,10.20
2019-04-14T14:29:29.071Z,10.00
2019-04-14T14:30:29.067Z,9.80
2019-04-14T14:31:29.035Z,10.20
2019-04-14T14:32:29.023Z,10.30
2019-04-14T14:33:29.010Z,9.60
2019-04-14T14:34:28.995Z,10.00
2019-04-14T14:35:29.001Z,10.20
2019-04-14T14:36:28.969Z,9.60
2019-04-14T14:37:28.957Z,9.80
2019-04-14T14:38:28.947Z,10.30
2019-04-14T14:39:28.936Z,9.90
2019-04-14T14:40:28.932Z,9.90
2019-04-14T14:41:28.906Z,9.50
2019-04-14T14:42:28.898Z,9.60
2019-04-14T14:43:28.880Z,9.30
2019-04-14T14:44:28.871Z,9.70
2019-04-14T14:45:28.872Z,9.40
2019-04-14T14:46:28.841Z,9.80
2019-04-14T14:47:28.838Z,10.50
2019-04-14T14:48:28.814Z,9.80
2019-04-14T14:49:28.799Z,9.70
2019-04-14T14:50:28.809Z,9.30
2019-04-14T14:51:28.795Z,9.60
2019-04-14T14:52:28.757Z,9.60
2019-04-14T14:53:28.749Z,9.20
2019-04-14T14:54:28.737Z,9.80
2019-04-14T14:55:28.720Z,9.20
2019-04-14T14:56:28.724Z,9.20
2019-04-14T14:57:28.698Z,9.70
2019-04-14T14:58:28.681Z,8.70
2019-04-14T14:59:28.672Z,9.60
2019-04-14T15:00:28.706Z,9.20
2019-04-14T15:01:28.663Z,9.40
2019-04-14T15:02:28.639Z,9.60
2019-04-14T15:03:28.623Z,9.80
2019-04-14T15:04:28.610Z,10.00
2019-04-14T15:05:28.598Z,9.90
2019-04-14T15:06:28.680Z,10.20
2019-04-14T15:07:28.586Z,9.90
2019-04-14T15:08:28.563Z,10.30
2019-04-14T15:09:28.547Z,9.70
2019-04-14T15:10:28.543Z,9.50
2019-04-14T15:11:28.534Z,9.80
2019-04-14T15:12:28.510Z,9.80
2019-04-14T15:13:28.497Z,9.90
2019-04-14T15:14:28.503Z,10.00
2019-04-14T15:15:28.473Z,9.80
2019-04-14T15:16:28.492Z,9.10
2019-04-14T15:17:28.442Z,10.00
2019-04-14T15:18:28.436Z,10.40
2019-04-14T15:19:28.418Z,9.90
2019-04-14T15:20:28.419Z,9.90
2019-04-14T15:21:28.397Z,9.60
2019-04-14T15:22:28.425Z,10.40
2019-04-14T15:23:28.373Z,10.10
2019-04-14T15:24:28.362Z,9.90
2019-04-14T15:25:28.349Z,9.90
2019-04-14T15:26:28.340Z,10.80
2019-04-14T15:27:28.348Z,10.80
2019-04-14T15:28:28.312Z,10.10
2019-04-14T15:29:28.304Z,9.70
2019-04-14T15:30:28.288Z,10.30
2019-04-14T15:31:28.275Z,10.40
2019-04-14T15:32:28.278Z,10.50
2019-04-14T15:33:28.252Z,10.60
2019-04-14T15:34:28.239Z,10.30
2019-04-14T15:35:28.222Z,10.50
2019-04-14T15:36:28.248Z,11.00
2019-04-14T15:37:28.193Z,10.20
2019-04-14T15:38:28.187Z,10.10
2019-04-14T15:39:28.168Z,10.30
2019-04-14T15:40:28.158Z,10.40
2019-04-14T15:41:28.144Z,10.00
2019-04-14T15:42:28.146Z,9.90
2019-04-14T15:43:28.124Z,10.30
2019-04-14T15:44:28.113Z,10.90
2019-04-14T15:45:28.096Z,9.70
2019-04-14T15:46:28.093Z,10.40
2019-04-14T15:47:28.086Z,10.20
2019-04-14T15:48:28.074Z,10.60
2019-04-14T15:49:28.051Z,10.30
2019-04-14T15:50:28.039Z,10.30
2019-04-14T15:51:28.029Z,9.90
2019-04-14T15:52:28.036Z,9.60
2019-04-14T15:53:37.785Z,9.90
2019-04-14T15:54:27.993Z,10.30
2019-04-14T15:55:27.979Z,10.00
2019-04-14T15:56:27.979Z,10.50
2019-04-14T15:57:27.979Z,10.80
2019-04-14T15:58:27.962Z,10.10
2019-04-14T15:59:29.508Z,10.40
2019-04-14T16:00:27.922Z,10.00
2019-04-14T16:01:27.908Z,10.20
2019-04-14T16:02:27.897Z,9.40
2019-04-14T16:03:27.898Z,10.70
2019-04-14T16:04:27.872Z,10.30
2019-04-14T16:05:27.864Z,9.70
2019-04-14T16:06:27.851Z,10.30
2019-04-14T16:07:27.838Z,10.10
2019-04-14T16:08:27.844Z,9.40
2019-04-14T16:09:27.817Z,10.30
2019-04-14T16:10:27.805Z,10.40
2019-04-14T16:11:27.792Z,9.30
2019-04-14T16:12:27.785Z,9.40
2019-04-14T16:13:27.772Z,10.10
2019-04-14T16:14:27.773Z,9.60
2019-04-14T16:15:27.750Z,9.30
2019-04-14T16:16:27.741Z,10.10
2019-04-14T16:17:27.730Z,10.00
2019-04-14T16:18:27.731Z,10.50
2019-04-14T16:19:27.738Z,10.10
2019-04-14T16:20:27.700Z,10.10
2019-04-14T16:21:27.698Z,10.00
2019-04-14T16:22:27.678Z,10.50
2019-04-14T16:23:27.668Z,9.70
2019-04-14T16:24:27.659Z,11.00
2019-04-14T16:25:27.663Z,10.30
2019-04-14T16:26:27.648Z,11.00
2019-04-14T16:27:27.628Z,10.50
2019-04-14T16:28:27.616Z,11.00
2019-04-14T16:29:27.606Z,10.70
2019-04-14T16:30:27.610Z,10.90
2019-04-14T16:31:27.589Z,11.10
2019-04-14T16:32:27.574Z,11.20
2019-04-14T16:33:27.567Z,11.00
2019-04-14T16:34:27.555Z,11.00
2019-04-14T16:35:27.556Z,10.50
2019-04-14T16:36:27.530Z,10.10
2019-04-14T16:37:27.526Z,10.60
2019-04-14T16:38:27.510Z,10.60
2019-04-14T16:39:27.498Z,10.80
2019-04-14T16:40:27.499Z,10.50
2019-04-14T16:41:27.479Z,10.30
2019-04-14T16:42:27.464Z,10.60
2019-04-14T16:43:27.453Z,9.80
2019-04-14T16:44:27.439Z,10.00
2019-04-14T16:45:27.452Z,10.50
2019-04-14T16:46:27.421Z,10.80
2019-04-14T16:47:27.406Z,10.50
2019-04-14T16:48:27.394Z,10.80
2019-04-14T16:49:27.385Z,10.90
2019-04-14T16:50:27.374Z,10.20
2019-04-14T16:51:27.386Z,11.40
2019-04-14T16:52:27.351Z,10.10
2019-04-14T16:53:27.350Z,10.30
2019-04-14T16:54:27.328Z,10.60
2019-04-14T16:55:29.680Z,11.00
2019-04-14T16:56:27.305Z,11.00
2019-04-14T16:57:28.978Z,10.70
2019-04-14T16:58:27.283Z,10.70
2019-04-14T16:59:27.268Z,11.20
2019-04-14T17:00:27.258Z,11.80
2019-04-14T17:01:27.340Z,11.60
2019-04-14T17:02:27.235Z,10.60
2019-04-14T17:03:27.222Z,11.20
2019-04-14T17:04:27.212Z,11.20
2019-04-14T17:05:27.236Z,11.20
2019-04-14T17:06:27.186Z,11.50
2019-04-14T17:07:27.169Z,10.90
2019-04-14T17:08:27.156Z,11.20
2019-04-14T17:09:27.142Z,11.50
2019-04-14T17:10:27.130Z,11.90
2019-04-14T17:11:27.129Z,11.50
2019-04-14T17:12:27.097Z,11.40
2019-04-14T17:13:27.091Z,11.60
2019-04-14T17:14:27.069Z,11.10
2019-04-14T17:15:27.056Z,11.50
2019-04-14T17:16:27.059Z,12.00
2019-04-14T17:17:27.023Z,12.00
2019-04-14T17:18:27.048Z,12.00
2019-04-14T17:19:26.994Z,11.80
2019-04-14T17:20:26.976Z,12.40
2019-04-14T17:21:26.977Z,12.20
2019-04-14T17:22:26.949Z,12.20
2019-04-14T17:23:26.929Z,12.10
2019-04-14T17:24:26.911Z,12.10
2019-04-14T17:25:26.917Z,13.00
2019-04-14T17:26:26.882Z,12.30
2019-04-14T17:27:26.873Z,12.30
2019-04-14T17:28:26.846Z,12.10
2019-04-14T17:29:26.830Z,12.90
2019-04-14T17:30:26.812Z,12.20
2019-04-14T17:31:26.795Z,11.90
2019-04-14T17:32:26.791Z,12.80
2019-04-14T17:33:26.763Z,11.90
2019-04-14T17:34:26.743Z,12.60
2019-04-14T17:35:26.725Z,12.00
2019-04-14T17:36:26.706Z,12.40
2019-04-14T17:37:26.707Z,11.60
2019-04-14T17:38:26.673Z,12.10
2019-04-14T17:39:26.653Z,11.40
2019-04-14T17:40:26.638Z,11.80
2019-04-14T17:41:26.625Z,11.70
2019-04-14T17:42:26.631Z,11.70
2019-04-14T17:43:26.583Z,11.70
2019-04-14T17:44:26.566Z,11.70
2019-04-14T17:45:26.547Z,11.70
2019-04-14T17:46:26.531Z,11.90
2019-04-14T17:47:26.510Z,11.70
2019-04-14T17:48:26.508Z,11.70
2019-04-14T17:49:26.479Z,11.20
2019-04-14T17:50:26.520Z,11.70
2019-04-14T17:51:26.436Z,11.20
2019-04-14T17:52:26.417Z,10.60
2019-04-14T17:53:26.414Z,11.90
2019-04-14T17:54:29.480Z,11.40
2019-04-14T17:55:26.384Z,11.90
2019-04-14T17:56:26.344Z,12.20
2019-04-14T17:57:26.362Z,11.50
2019-04-14T17:58:26.309Z,12.30
2019-04-14T17:59:26.288Z,11.50
2019-04-14T18:00:26.272Z,11.50
2019-04-14T18:01:26.253Z,12.20
2019-04-14T18:02:26.232Z,12.30
2019-04-14T18:03:26.224Z,58.70
2019-04-14T18:04:26.193Z,16.30
2019-04-14T18:05:26.198Z,13.00
2019-04-14T18:06:26.152Z,15.70
2019-04-14T18:07:26.133Z,12.40
2019-04-14T18:08:26.132Z,12.30
2019-04-14T18:09:28.608Z,11.90
2019-04-14T18:10:26.078Z,11.50
2019-04-14T18:11:26.057Z,12.10
2019-04-14T18:12:26.044Z,12.10
2019-04-14T18:13:26.072Z,12.30
2019-04-14T18:14:26.012Z,11.80
2019-04-14T18:15:25.986Z,11.60
2019-04-14T18:16:25.961Z,11.10
2019-04-14T18:17:25.940Z,11.80
2019-04-14T18:18:25.920Z,11.50
2019-04-14T18:19:25.914Z,11.40
2019-04-14T18:20:25.884Z,11.80
2019-04-14T18:21:25.911Z,11.90
2019-04-14T18:22:25.843Z,12.40
2019-04-14T18:23:25.822Z,11.80
2019-04-14T18:24:25.815Z,12.40
2019-04-14T18:25:25.782Z,11.80
2019-04-14T18:26:25.763Z,11.70
2019-04-14T18:27:25.741Z,11.40
2019-04-14T18:28:25.728Z,11.80
2019-04-14T18:29:25.717Z,12.50
2019-04-14T18:30:25.680Z,12.10
2019-04-14T18:31:25.659Z,12.20
2019-04-14T18:32:25.641Z,12.10
2019-04-14T18:33:25.620Z,11.80
2019-04-14T18:34:25.617Z,11.70
2019-04-14T18:35:25.597Z,11.90
2019-04-14T18:36:25.559Z,10.80
2019-04-14T18:37:25.541Z,11.90
2019-04-14T18:38:25.518Z,11.60
2019-04-14T18:39:25.498Z,11.40
2019-04-14T18:40:25.550Z,12.30
2019-04-14T18:41:25.456Z,11.80
2019-04-14T18:42:25.436Z,11.90
2019-04-14T18:43:25.414Z,11.60
2019-04-14T18:44:25.395Z,12.00
2019-04-14T18:45:25.388Z,12.10
2019-04-14T18:46:25.355Z,11.50
2019-04-14T18:47:25.333Z,12.30
2019-04-14T18:48:25.314Z,12.00
2019-04-14T18:49:25.293Z,11.50
2019-04-14T18:50:25.308Z,12.10
2019-04-14T18:51:25.258Z,13.50
2019-04-14T18:52:25.229Z,12.30
2019-04-14T18:53:25.208Z,12.60
2019-04-14T18:54:25.188Z,12.10
2019-04-14T18:55:25.166Z,12.40
2019-04-14T18:56:25.163Z,11.50
2019-04-14T18:57:25.125Z,10.90
2019-04-14T18:58:25.111Z,11.60
2019-04-14T18:59:25.086Z,12.00
2019-04-14T19:00:25.062Z,11.50
2019-04-14T19:01:25.057Z,11.10
2019-04-14T19:02:25.021Z,12.00
2019-04-14T19:03:25.007Z,11.90
2019-04-14T19:04:24.980Z,11.40
2019-04-14T19:05:24.959Z,12.00
2019-04-14T19:06:24.949Z,12.10
2019-04-14T19:07:24.917Z,12.30
2019-04-14T19:08:24.893Z,12.30
2019-04-14T19:09:24.871Z,11.80
2019-04-14T19:10:24.851Z,11.90
2019-04-14T19:11:24.848Z,11.60
2019-04-14T19:12:24.810Z,11.90
2019-04-14T19:13:24.789Z,11.70
2019-04-14T19:14:24.768Z,11.70
2019-04-14T19:15:24.744Z,11.30
2019-04-14T19:16:24.724Z,11.50
2019-04-14T19:17:24.717Z,12.30
2019-04-14T19:18:25.807Z,11.70
2019-04-14T19:19:24.661Z,11.80
2019-04-14T19:20:24.641Z,12.00
2019-04-14T19:21:24.620Z,11.40
2019-04-14T19:22:24.611Z,11.90
2019-04-14T19:23:24.579Z,11.20
2019-04-14T19:24:24.554Z,11.80
2019-04-14T19:25:24.533Z,11.00
2019-04-14T19:26:24.512Z,11.40
2019-04-14T19:27:24.512Z,11.40
2019-04-14T19:28:24.472Z,11.40
2019-04-14T19:29:24.447Z,10.80
2019-04-14T19:30:24.426Z,10.80
2019-04-14T19:31:24.410Z,11.40
2019-04-14T19:32:24.382Z,11.00
2019-04-14T19:33:24.374Z,11.80
2019-04-14T19:34:24.341Z,11.20
2019-04-14T19:35:26.787Z,12.40
2019-04-14T19:36:24.297Z,11.50
2019-04-14T19:37:24.276Z,11.40
2019-04-14T19:38:24.268Z,11.20
2019-04-14T19:39:24.232Z,11.60
2019-04-14T19:40:24.210Z,11.40
2019-04-14T19:41:24.188Z,11.00
2019-04-14T19:42:24.168Z,11.80
2019-04-14T19:43:24.401Z,11.90
2019-04-14T19:44:24.124Z,11.30
2019-04-14T19:45:24.105Z,10.80
2019-04-14T19:46:24.081Z,12.10
2019-04-14T19:47:24.071Z,11.50
2019-04-14T19:48:24.038Z,12.00
2019-04-14T19:49:24.032Z,11.20
2019-04-14T19:50:23.999Z,11.70
2019-04-14T19:51:23.983Z,12.00
2019-04-14T19:52:23.950Z,12.00
2019-04-14T19:53:23.931Z,12.90
2019-04-14T19:54:23.920Z,13.10
2019-04-14T19:55:23.884Z,13.50
2019-04-14T19:56:23.865Z,13.10
2019-04-14T19:57:23.843Z,12.80
2019-04-14T19:58:23.822Z,12.20
2019-04-14T19:59:23.815Z,12.10
2019-04-14T20:00:23.777Z,11.70
2019-04-14T20:01:23.764Z,12.10
2019-04-14T20:02:23.734Z,11.60
2019-04-14T20:03:23.715Z,11.40
2019-04-14T20:04:23.688Z,11.60
2019-04-14T20:05:23.681Z,11.20
2019-04-14T20:06:23.645Z,11.10
2019-04-14T20:07:23.622Z,11.20
2019-04-14T20:08:23.603Z,10.90
2019-04-14T20:09:23.581Z,12.30
2019-04-14T20:10:23.572Z,11.60
2019-04-14T20:11:23.539Z,11.50
2019-04-14T20:12:23.513Z,11.90
2019-04-14T20:13:23.493Z,11.30
2019-04-14T20:14:23.471Z,11.80
2019-04-14T20:15:23.461Z,11.70
2019-04-14T20:16:23.431Z,12.30
2019-04-14T20:17:23.404Z,11.30
2019-04-14T20:18:23.381Z,11.40
2019-04-14T20:19:23.358Z,11.70
2019-04-14T20:20:23.357Z,11.70
2019-04-14T20:21:23.320Z,11.10
2019-04-14T20:22:23.294Z,12.10
2019-04-14T20:23:23.366Z,11.90
2019-04-14T20:24:23.252Z,11.40
2019-04-14T20:25:33.047Z,11.30
2019-04-14T20:26:23.209Z,11.90
2019-04-14T20:27:23.190Z,12.00
2019-04-14T20:28:23.159Z,11.60
2019-04-14T20:29:23.141Z,11.70
2019-04-14T20:30:23.129Z,12.00
2019-04-14T20:31:23.099Z,11.90
2019-04-14T20:32:23.071Z,11.80
2019-04-14T20:33:23.048Z,12.10
2019-04-14T20:34:23.039Z,12.30
2019-04-14T20:35:23.021Z,12.00
2019-04-14T20:37:58.411Z,12.40
2019-04-14T20:38:54.992Z,12.70
2019-04-14T20:39:54.967Z,12.00
2019-04-14T20:40:54.962Z,12.10
2019-04-14T20:41:54.922Z,12.00
2019-04-14T20:43:03.702Z,12.20
2019-04-14T20:43:54.881Z,12.50
2019-04-14T20:44:54.870Z,12.80
2019-04-14T20:45:54.833Z,12.50
2019-04-14T20:46:54.811Z,12.10
2019-04-14T20:47:54.793Z,11.80
2019-04-14T20:48:54.768Z,12.30
2019-04-14T20:49:54.757Z,13.40
2019-04-14T20:50:54.718Z,12.20
2019-04-14T20:51:54.699Z,12.80
2019-04-14T20:52:54.678Z,12.50
2019-04-14T20:53:54.655Z,12.50
2019-04-14T20:54:54.646Z,12.20
2019-04-14T20:55:54.610Z,12.30
2019-04-14T20:56:54.587Z,12.30
2019-04-14T20:57:54.567Z,12.80
2019-04-14T20:58:54.542Z,13.30
2019-04-14T20:59:54.536Z,13.60
2019-04-14T21:00:54.496Z,14.60
2019-04-14T21:01:54.474Z,13.70
2019-04-14T21:02:54.453Z,13.80
2019-04-14T21:03:54.429Z,13.30
2019-04-14T21:04:54.421Z,14.20